createdAt,value
2023-03-06T00:03:32.342Z,9
2023-03-06T00:32:30.081Z,7
2023-03-06T01:01:30.636Z,7
2023-03-06T01:30:33.717Z,7
2023-03-06T01:59:36.926Z,7
2023-03-06T02:28:37.493Z,7
2023-03-06T02:57:36.990Z,6
2023-03-06T03:26:41.275Z,6
2023-03-06T03:55:46.250Z,7
2023-03-06T04:24:49.844Z,7
2023-03-06T04:53:52.457Z,6
2023-03-06T05:22:54.982Z,6
2023-03-06T05:52:00.569Z,6
2023-03-06T06:20:56.659Z,7
2023-03-06T06:49:53.501Z,6
2023-03-06T07:18:42.505Z,7
2023-03-06T07:47:30.737Z,6
2023-03-06T08:16:29.286Z,7
2023-03-06T08:45:26.832Z,6
2023-03-06T09:14:21.655Z,6
2023-03-06T09:43:20.664Z,9
2023-03-06T10:12:24.324Z,9
2023-03-06T10:40:55.332Z,8
2023-03-06T11:09:52.567Z,8
2023-03-06T11:38:51.373Z,9
2023-03-06T12:07:39.562Z,9
2023-03-06T12:36:39.826Z,11
2023-03-06T13:05:36.768Z,13
2023-03-06T13:34:31.388Z,12
2023-03-06T14:03:28.580Z,12
2023-03-06T14:32:16.787Z,10
2023-03-06T15:01:08.937Z,12
2023-03-06T15:30:03.289Z,10
2023-03-06T15:58:54.172Z,10
2023-03-06T16:27:47.913Z,10
2023-03-06T16:56:23.418Z,10
2023-03-06T17:25:25.405Z,11
2023-03-06T17:54:18.797Z,12
2023-03-06T18:23:20.102Z,10
2023-03-06T18:52:31.096Z,10
2023-03-06T19:21:34.447Z,10
2023-03-06T19:50:24.956Z,9
2023-03-06T20:19:23.445Z,9
2023-03-06T20:48:21.448Z,9
2023-03-06T21:17:21.549Z,8
2023-03-06T21:46:22.022Z,8
2023-03-06T22:15:20.698Z,7
2023-03-06T22:44:20.618Z,7
2023-03-06T23:13:24.157Z,8
2023-03-06T23:42:26.684Z,7
